Winterville, MS

10:53 PM CST on February 11, 2016 (GMT -0600)
Mid Delta Regional | | Change Station
CLOSE
Current Station
Airport
Location: Greenville,
Elevation: 131 ft
Nearby Weather Stations

Elev 131 ft 33.48 °N, 90.99 °W | Updated 1 hour ago

Partly Cloudy
Partly Cloudy
45 °F
Feels Like 41 °F
N
8
Wind Variable Wind from NNE

Today
High -- | Low -- °F
--% Chance of Precip.
Yesterday
High -- | Low -- °F
Precip. -- in
Pressure 30.19 in
Visibility 10.0 miles
Clouds Clear
Windchill 41 °F
Dew Point 28 °F
Humidity 52%
Rainfall 0.00 in
Snow Depth Not available.
6:52 AM 5:44 PM
Waxing Crescent, 17% visible
METAR KGLH 120353Z AUTO 02007KT 10SM CLR 07/M02 A3017 RMK AO2 SLP223 T00721022
Pressure 30.19 in
Visibility 10.0 miles
Clouds Clear
Windchill 41 °F
Dew Point 28 °F
Humidity 52%
Rainfall 0.00 in
Snow Depth Not available.
6:52 AM 5:44 PM
Waxing Crescent, 17% visible
METAR KGLH 120353Z AUTO 02007KT 10SM CLR 07/M02 A3017 RMK AO2 SLP223 T00721022

10-Day Weather Forecast

Almanac

Astronomy

Feb. 11, 2016 Rise Set
Actual Time
Civil Twilight
Nautical Twilight
Astronomical Twilight
Moon
Length of Visible Light
Length of Day
Tomorrow will be .
, % of the Moon is Illuminated

Today's Extremes

State Highs State Lows

Community

WunderPhotos

Upload Photos

1,892,268 photos uploaded!

WunderBlog® & News

Nearby

Air Quality

  Air Quality AQ Index Pollutant
Not available.

Snow Depth

Station Depth Elevation

Earthquake Activity

City Distance Mag. Time & Date
Minimum magnitude displayed is 2.5.

Coastal Water Temperatures

Place Temperature

Stations

Nearby Weather Stations

Station Location Temp. Windchill Dew Point Humidity Wind Precip. Elev Updated Type
                   

Watches & Warnings

There are currently no watches in effect.